sensor_id;sensor_type;location;lat;lon;timestamp;temperature;humidity
42147;DHT22;27815;43.410;11.852;2023-05-07T00:01:12;16.00;57.00
42147;DHT22;27815;43.410;11.852;2023-05-07T00:05:16;16.00;57.00
42147;DHT22;27815;43.410;11.852;2023-05-07T00:09:19;15.90;57.00
42147;DHT22;27815;43.410;11.852;2023-05-07T00:13:22;15.90;57.00
42147;DHT22;27815;43.410;11.852;2023-05-07T00:17:25;15.80;57.10
42147;DHT22;27815;43.410;11.852;2023-05-07T00:21:28;15.80;57.30
42147;DHT22;27815;43.410;11.852;2023-05-07T00:25:31;15.80;57.30
42147;DHT22;27815;43.410;11.852;2023-05-07T00:29:34;15.70;57.40
42147;DHT22;27815;43.410;11.852;2023-05-07T00:33:38;15.70;57.70
42147;DHT22;27815;43.410;11.852;2023-05-07T00:37:41;15.60;58.00
42147;DHT22;27815;43.410;11.852;2023-05-07T00:41:44;15.50;57.90
42147;DHT22;27815;43.410;11.852;2023-05-07T00:45:47;15.40;58.20
42147;DHT22;27815;43.410;11.852;2023-05-07T00:49:51;15.30;58.50
42147;DHT22;27815;43.410;11.852;2023-05-07T00:53:54;15.30;58.50
42147;DHT22;27815;43.410;11.852;2023-05-07T00:57:57;15.20;58.50
42147;DHT22;27815;43.410;11.852;2023-05-07T01:02:00;15.10;58.60
42147;DHT22;27815;43.410;11.852;2023-05-07T01:06:04;15.00;59.00
42147;DHT22;27815;43.410;11.852;2023-05-07T01:10:11;14.80;59.40
42147;DHT22;27815;43.410;11.852;2023-05-07T01:14:15;14.70;59.50
42147;DHT22;27815;43.410;11.852;2023-05-07T01:18:19;14.60;59.80
42147;DHT22;27815;43.410;11.852;2023-05-07T01:22:40;14.50;60.00
42147;DHT22;27815;43.410;11.852;2023-05-07T01:26:44;14.50;60.00
42147;DHT22;27815;43.410;11.852;2023-05-07T01:30:53;14.50;60.20
42147;DHT22;27815;43.410;11.852;2023-05-07T01:35:00;14.30;60.50
42147;DHT22;27815;43.410;11.852;2023-05-07T01:39:05;14.30;60.60
42147;DHT22;27815;43.410;11.852;2023-05-07T01:43:09;14.20;60.90
42147;DHT22;27815;43.410;11.852;2023-05-07T01:47:13;14.20;61.30
42147;DHT22;27815;43.410;11.852;2023-05-07T01:51:17;14.10;61.40
42147;DHT22;27815;43.410;11.852;2023-05-07T01:55:22;14.10;61.50
42147;DHT22;27815;43.410;11.852;2023-05-07T01:59:25;14.10;61.40
42147;DHT22;27815;43.410;11.852;2023-05-07T02:03:28;14.10;61.40
42147;DHT22;27815;43.410;11.852;2023-05-07T02:07:40;14.10;61.30
42147;DHT22;27815;43.410;11.852;2023-05-07T02:11:44;14.00;61.40
42147;DHT22;27815;43.410;11.852;2023-05-07T02:15:47;13.90;61.70
42147;DHT22;27815;43.410;11.852;2023-05-07T02:19:53;13.80;62.00
42147;DHT22;27815;43.410;11.852;2023-05-07T02:23:56;13.70;61.90
42147;DHT22;27815;43.410;11.852;2023-05-07T02:27:59;13.60;62.10
42147;DHT22;27815;43.410;11.852;2023-05-07T02:32:21;13.60;62.40
42147;DHT22;27815;43.410;11.852;2023-05-07T02:36:25;13.50;62.50
42147;DHT22;27815;43.410;11.852;2023-05-07T02:40:38;13.50;62.60
42147;DHT22;27815;43.410;11.852;2023-05-07T02:44:42;13.50;62.70
42147;DHT22;27815;43.410;11.852;2023-05-07T02:48:45;13.50;62.70
42147;DHT22;27815;43.410;11.852;2023-05-07T02:52:48;13.50;62.70
42147;DHT22;27815;43.410;11.852;2023-05-07T02:56:52;13.50;62.60
42147;DHT22;27815;43.410;11.852;2023-05-07T03:00:55;13.30;62.70
42147;DHT22;27815;43.410;11.852;2023-05-07T03:05:08;13.30;62.90
42147;DHT22;27815;43.410;11.852;2023-05-07T03:09:11;13.20;62.90
42147;DHT22;27815;43.410;11.852;2023-05-07T03:13:14;13.20;62.90
42147;DHT22;27815;43.410;11.852;2023-05-07T03:17:18;13.10;63.20
42147;DHT22;27815;43.410;11.852;2023-05-07T03:21:23;13.00;63.40
42147;DHT22;27815;43.410;11.852;2023-05-07T03:25:29;13.00;63.50
42147;DHT22;27815;43.410;11.852;2023-05-07T03:29:34;13.00;63.40
42147;DHT22;27815;43.410;11.852;2023-05-07T03:33:55;12.90;63.50
42147;DHT22;27815;43.410;11.852;2023-05-07T03:37:59;13.00;63.90
42147;DHT22;27815;43.410;11.852;2023-05-07T03:42:04;12.90;63.60
42147;DHT22;27815;43.410;11.852;2023-05-07T03:46:08;12.90;63.80
42147;DHT22;27815;43.410;11.852;2023-05-07T03:50:11;12.90;63.80
42147;DHT22;27815;43.410;11.852;2023-05-07T03:54:15;12.80;64.10
42147;DHT22;27815;43.410;11.852;2023-05-07T03:58:20;12.80;64.30
42147;DHT22;27815;43.410;11.852;2023-05-07T04:02:23;12.80;64.30
42147;DHT22;27815;43.410;11.852;2023-05-07T04:06:26;12.80;64.60
42147;DHT22;27815;43.410;11.852;2023-05-07T04:10:30;12.70;64.60
42147;DHT22;27815;43.410;11.852;2023-05-07T04:14:37;12.70;64.60
42147;DHT22;27815;43.410;11.852;2023-05-07T04:18:40;12.80;64.50
42147;DHT22;27815;43.410;11.852;2023-05-07T04:22:43;12.80;64.60
42147;DHT22;27815;43.410;11.852;2023-05-07T04:26:46;12.80;64.60
42147;DHT22;27815;43.410;11.852;2023-05-07T04:30:49;12.80;64.60
42147;DHT22;27815;43.410;11.852;2023-05-07T04:34:52;12.80;64.60
42147;DHT22;27815;43.410;11.852;2023-05-07T04:38:56;12.80;64.70
42147;DHT22;27815;43.410;11.852;2023-05-07T04:42:59;12.70;64.80
42147;DHT22;27815;43.410;11.852;2023-05-07T04:47:05;12.70;65.00
42147;DHT22;27815;43.410;11.852;2023-05-07T04:51:09;12.70;64.90
42147;DHT22;27815;43.410;11.852;2023-05-07T04:55:12;12.80;65.00
42147;DHT22;27815;43.410;11.852;2023-05-07T04:59:16;12.80;65.00
42147;DHT22;27815;43.410;11.852;2023-05-07T05:03:19;12.80;65.50
42147;DHT22;27815;43.410;11.852;2023-05-07T05:07:23;12.80;66.00
42147;DHT22;27815;43.410;11.852;2023-05-07T05:11:26;12.90;66.40
42147;DHT22;27815;43.410;11.852;2023-05-07T05:15:29;12.90;66.40
42147;DHT22;27815;43.410;11.852;2023-05-07T05:19:36;13.00;66.40
42147;DHT22;27815;43.410;11.852;2023-05-07T05:23:39;13.10;66.30
42147;DHT22;27815;43.410;11.852;2023-05-07T05:27:45;13.00;66.70
42147;DHT22;27815;43.410;11.852;2023-05-07T05:31:48;13.10;66.70
42147;DHT22;27815;43.410;11.852;2023-05-07T05:35:56;13.20;66.70
42147;DHT22;27815;43.410;11.852;2023-05-07T05:39:59;13.40;66.80
42147;DHT22;27815;43.410;11.852;2023-05-07T05:44:04;13.60;66.40
42147;DHT22;27815;43.410;11.852;2023-05-07T05:48:07;14.00;66.20
42147;DHT22;27815;43.410;11.852;2023-05-07T05:52:12;14.30;65.80
42147;DHT22;27815;43.410;11.852;2023-05-07T05:56:16;14.50;65.60
42147;DHT22;27815;43.410;11.852;2023-05-07T06:00:20;14.70;65.30
42147;DHT22;27815;43.410;11.852;2023-05-07T06:04:33;15.00;65.20
42147;DHT22;27815;43.410;11.852;2023-05-07T06:08:37;15.20;65.10
42147;DHT22;27815;43.410;11.852;2023-05-07T06:12:40;15.40;65.00
42147;DHT22;27815;43.410;11.852;2023-05-07T06:16:44;15.60;64.80
42147;DHT22;27815;43.410;11.852;2023-05-07T06:20:47;15.90;64.40
42147;DHT22;27815;43.410;11.852;2023-05-07T06:24:58;16.00;64.30
42147;DHT22;27815;43.410;11.852;2023-05-07T06:29:01;16.30;63.90
42147;DHT22;27815;43.410;11.852;2023-05-07T06:33:05;16.50;63.70
42147;DHT22;27815;43.410;11.852;2023-05-07T06:37:08;16.80;63.10
42147;DHT22;27815;43.410;11.852;2023-05-07T06:41:26;17.10;62.60
42147;DHT22;27815;43.410;11.852;2023-05-07T06:45:32;17.40;62.10
42147;DHT22;27815;43.410;11.852;2023-05-07T06:49:35;17.50;61.60
42147;DHT22;27815;43.410;11.852;2023-05-07T06:53:38;17.70;61.50
42147;DHT22;27815;43.410;11.852;2023-05-07T06:57:43;18.00;61.30
42147;DHT22;27815;43.410;11.852;2023-05-07T07:01:46;18.20;60.90
42147;DHT22;27815;43.410;11.852;2023-05-07T07:06:01;18.40;60.80
42147;DHT22;27815;43.410;11.852;2023-05-07T07:10:06;18.60;60.40
42147;DHT22;27815;43.410;11.852;2023-05-07T07:14:09;18.90;60.10
42147;DHT22;27815;43.410;11.852;2023-05-07T07:18:20;19.10;59.50
42147;DHT22;27815;43.410;11.852;2023-05-07T07:22:24;19.10;59.50
42147;DHT22;27815;43.410;11.852;2023-05-07T07:26:27;19.20;59.50
42147;DHT22;27815;43.410;11.852;2023-05-07T07:30:30;19.30;59.40
42147;DHT22;27815;43.410;11.852;2023-05-07T07:34:33;19.50;59.40
42147;DHT22;27815;43.410;11.852;2023-05-07T07:38:37;19.70;59.10
42147;DHT22;27815;43.410;11.852;2023-05-07T07:42:40;20.00;58.20
42147;DHT22;27815;43.410;11.852;2023-05-07T07:46:43;20.10;58.20
42147;DHT22;27815;43.410;11.852;2023-05-07T07:50:53;20.30;57.80
42147;DHT22;27815;43.410;11.852;2023-05-07T07:54:57;20.40;57.60
42147;DHT22;27815;43.410;11.852;2023-05-07T07:59:00;20.70;57.00
42147;DHT22;27815;43.410;11.852;2023-05-07T08:03:08;21.00;56.20
42147;DHT22;27815;43.410;11.852;2023-05-07T08:07:16;21.10;56.00
42147;DHT22;27815;43.410;11.852;2023-05-07T08:11:22;21.00;56.40
42147;DHT22;27815;43.410;11.852;2023-05-07T08:15:27;21.30;56.10
42147;DHT22;27815;43.410;11.852;2023-05-07T08:19:31;21.50;55.00
42147;DHT22;27815;43.410;11.852;2023-05-07T08:23:48;21.50;55.20
42147;DHT22;27815;43.410;11.852;2023-05-07T08:27:52;21.60;54.80
42147;DHT22;27815;43.410;11.852;2023-05-07T08:31:58;22.00;53.90
42147;DHT22;27815;43.410;11.852;2023-05-07T08:36:10;22.20;53.20
42147;DHT22;27815;43.410;11.852;2023-05-07T08:40:17;22.40;52.40
42147;DHT22;27815;43.410;11.852;2023-05-07T08:44:27;22.50;52.20
42147;DHT22;27815;43.410;11.852;2023-05-07T08:48:35;22.90;50.50
42147;DHT22;27815;43.410;11.852;2023-05-07T08:53:03;22.90;51.00
42147;DHT22;27815;43.410;11.852;2023-05-07T08:57:07;23.00;50.30
42147;DHT22;27815;43.410;11.852;2023-05-07T09:01:16;23.20;49.50
42147;DHT22;27815;43.410;11.852;2023-05-07T09:05:25;23.40;49.10
42147;DHT22;27815;43.410;11.852;2023-05-07T09:09:28;23.50;48.00
42147;DHT22;27815;43.410;11.852;2023-05-07T09:13:33;23.50;48.50
42147;DHT22;27815;43.410;11.852;2023-05-07T09:17:37;23.60;48.30
42147;DHT22;27815;43.410;11.852;2023-05-07T09:21:41;23.70;47.30
42147;DHT22;27815;43.410;11.852;2023-05-07T09:25:47;24.00;47.30
42147;DHT22;27815;43.410;11.852;2023-05-07T09:30:07;24.20;45.90
42147;DHT22;27815;43.410;11.852;2023-05-07T09:34:11;24.00;45.50
42147;DHT22;27815;43.410;11.852;2023-05-07T09:38:21;24.00;45.80
42147;DHT22;27815;43.410;11.852;2023-05-07T09:42:31;24.20;45.70
42147;DHT22;27815;43.410;11.852;2023-05-07T09:46:39;24.40;44.20
42147;DHT22;27815;43.410;11.852;2023-05-07T09:50:57;24.50;44.80
42147;DHT22;27815;43.410;11.852;2023-05-07T09:55:09;24.40;43.00
42147;DHT22;27815;43.410;11.852;2023-05-07T09:59:16;24.50;42.30
42147;DHT22;27815;43.410;11.852;2023-05-07T10:03:22;24.70;41.90
42147;DHT22;27815;43.410;11.852;2023-05-07T10:07:37;24.80;42.00
42147;DHT22;27815;43.410;11.852;2023-05-07T10:11:49;25.00;42.50
42147;DHT22;27815;43.410;11.852;2023-05-07T10:15:57;25.20;41.40
42147;DHT22;27815;43.410;11.852;2023-05-07T10:20:06;25.20;42.10
42147;DHT22;27815;43.410;11.852;2023-05-07T10:24:31;25.40;41.90
42147;DHT22;27815;43.410;11.852;2023-05-07T10:28:41;25.50;41.50
42147;DHT22;27815;43.410;11.852;2023-05-07T10:32:53;25.50;39.60
42147;DHT22;27815;43.410;11.852;2023-05-07T10:37:05;25.50;39.80
42147;DHT22;27815;43.410;11.852;2023-05-07T10:41:09;25.60;40.40
42147;DHT22;27815;43.410;11.852;2023-05-07T10:45:15;25.60;40.40
42147;DHT22;27815;43.410;11.852;2023-05-07T10:49:23;25.50;40.60
42147;DHT22;27815;43.410;11.852;2023-05-07T10:53:30;25.70;40.30
42147;DHT22;27815;43.410;11.852;2023-05-07T10:57:48;25.60;41.10
42147;DHT22;27815;43.410;11.852;2023-05-07T11:02:04;25.60;40.80
42147;DHT22;27815;43.410;11.852;2023-05-07T11:06:16;25.80;40.60
42147;DHT22;27815;43.410;11.852;2023-05-07T11:10:49;25.90;40.70
42147;DHT22;27815;43.410;11.852;2023-05-07T11:15:11;26.00;41.20
42147;DHT22;27815;43.410;11.852;2023-05-07T11:19:50;26.10;41.30
42147;DHT22;27815;43.410;11.852;2023-05-07T11:24:23;26.20;41.00
42147;DHT22;27815;43.410;11.852;2023-05-07T11:28:41;26.20;41.40
42147;DHT22;27815;43.410;11.852;2023-05-07T11:32:47;26.40;41.30
42147;DHT22;27815;43.410;11.852;2023-05-07T11:37:03;26.10;41.80
42147;DHT22;27815;43.410;11.852;2023-05-07T11:41:16;26.40;41.60
42147;DHT22;27815;43.410;11.852;2023-05-07T11:45:24;26.60;40.40
42147;DHT22;27815;43.410;11.852;2023-05-07T11:49:51;26.70;39.90
42147;DHT22;27815;43.410;11.852;2023-05-07T11:53:54;26.80;39.90
42147;DHT22;27815;43.410;11.852;2023-05-07T11:57:57;26.70;40.20
42147;DHT22;27815;43.410;11.852;2023-05-07T12:02:00;26.80;39.10
42147;DHT22;27815;43.410;11.852;2023-05-07T12:06:07;26.80;38.20
42147;DHT22;27815;43.410;11.852;2023-05-07T12:10:11;26.90;38.10
42147;DHT22;27815;43.410;11.852;2023-05-07T12:14:15;27.00;35.50
42147;DHT22;27815;43.410;11.852;2023-05-07T12:18:27;27.10;34.60
42147;DHT22;27815;43.410;11.852;2023-05-07T12:22:30;27.30;34.60
42147;DHT22;27815;43.410;11.852;2023-05-07T12:26:38;27.40;33.20
42147;DHT22;27815;43.410;11.852;2023-05-07T12:30:43;27.40;33.10
42147;DHT22;27815;43.410;11.852;2023-05-07T12:34:49;27.50;33.00
42147;DHT22;27815;43.410;11.852;2023-05-07T12:38:54;27.50;33.50
42147;DHT22;27815;43.410;11.852;2023-05-07T12:42:59;27.50;33.60
42147;DHT22;27815;43.410;11.852;2023-05-07T12:47:02;27.60;33.00
42147;DHT22;27815;43.410;11.852;2023-05-07T12:51:06;27.70;33.20
42147;DHT22;27815;43.410;11.852;2023-05-07T12:55:17;27.90;33.40
42147;DHT22;27815;43.410;11.852;2023-05-07T12:59:38;28.00;33.10
42147;DHT22;27815;43.410;11.852;2023-05-07T13:03:48;28.00;32.80
42147;DHT22;27815;43.410;11.852;2023-05-07T13:07:55;28.00;33.10
42147;DHT22;27815;43.410;11.852;2023-05-07T13:11:59;28.00;33.70
42147;DHT22;27815;43.410;11.852;2023-05-07T13:16:04;28.10;33.90
42147;DHT22;27815;43.410;11.852;2023-05-07T13:20:10;28.20;33.20
42147;DHT22;27815;43.410;11.852;2023-05-07T13:24:16;28.20;33.10
42147;DHT22;27815;43.410;11.852;2023-05-07T13:28:29;28.30;33.50
42147;DHT22;27815;43.410;11.852;2023-05-07T13:32:38;28.10;33.50
42147;DHT22;27815;43.410;11.852;2023-05-07T13:36:43;28.20;33.80
42147;DHT22;27815;43.410;11.852;2023-05-07T13:40:46;28.00;33.50
42147;DHT22;27815;43.410;11.852;2023-05-07T13:44:54;27.90;33.80
42147;DHT22;27815;43.410;11.852;2023-05-07T13:48:57;28.00;33.20
42147;DHT22;27815;43.410;11.852;2023-05-07T13:53:03;28.00;32.60
42147;DHT22;27815;43.410;11.852;2023-05-07T13:57:06;28.00;32.70
42147;DHT22;27815;43.410;11.852;2023-05-07T14:01:10;28.20;33.00
42147;DHT22;27815;43.410;11.852;2023-05-07T14:05:18;28.20;33.00
42147;DHT22;27815;43.410;11.852;2023-05-07T14:09:38;28.30;33.30
42147;DHT22;27815;43.410;11.852;2023-05-07T14:13:41;28.30;33.10
42147;DHT22;27815;43.410;11.852;2023-05-07T14:17:44;28.40;33.30
42147;DHT22;27815;43.410;11.852;2023-05-07T14:21:47;28.50;33.50
42147;DHT22;27815;43.410;11.852;2023-05-07T14:25:50;28.60;33.80
42147;DHT22;27815;43.410;11.852;2023-05-07T14:29:55;28.50;33.40
42147;DHT22;27815;43.410;11.852;2023-05-07T14:34:01;28.50;33.50
42147;DHT22;27815;43.410;11.852;2023-05-07T14:38:06;28.50;33.60
42147;DHT22;27815;43.410;11.852;2023-05-07T14:42:10;28.60;33.20
42147;DHT22;27815;43.410;11.852;2023-05-07T14:46:15;28.60;33.80
42147;DHT22;27815;43.410;11.852;2023-05-07T14:50:23;28.60;33.60
42147;DHT22;27815;43.410;11.852;2023-05-07T14:54:46;28.60;33.70
42147;DHT22;27815;43.410;11.852;2023-05-07T14:58:53;28.50;33.90
42147;DHT22;27815;43.410;11.852;2023-05-07T15:03:04;28.70;33.70
42147;DHT22;27815;43.410;11.852;2023-05-07T15:07:08;28.80;34.00
42147;DHT22;27815;43.410;11.852;2023-05-07T15:11:10;28.90;33.20
42147;DHT22;27815;43.410;11.852;2023-05-07T15:15:13;28.70;33.80
42147;DHT22;27815;43.410;11.852;2023-05-07T15:19:16;28.70;33.60
42147;DHT22;27815;43.410;11.852;2023-05-07T15:23:19;28.60;34.00
42147;DHT22;27815;43.410;11.852;2023-05-07T15:27:26;28.50;33.90
42147;DHT22;27815;43.410;11.852;2023-05-07T15:31:33;28.70;34.20
42147;DHT22;27815;43.410;11.852;2023-05-07T15:35:36;28.60;34.20
42147;DHT22;27815;43.410;11.852;2023-05-07T15:39:39;28.40;34.80
42147;DHT22;27815;43.410;11.852;2023-05-07T15:43:48;28.10;34.90
42147;DHT22;27815;43.410;11.852;2023-05-07T15:47:51;27.70;35.80
42147;DHT22;27815;43.410;11.852;2023-05-07T15:51:54;27.50;36.30
42147;DHT22;27815;43.410;11.852;2023-05-07T15:55:57;27.30;36.90
42147;DHT22;27815;43.410;11.852;2023-05-07T16:00:00;27.20;37.30
42147;DHT22;27815;43.410;11.852;2023-05-07T16:04:14;26.90;37.70
42147;DHT22;27815;43.410;11.852;2023-05-07T16:08:17;26.70;38.40
42147;DHT22;27815;43.410;11.852;2023-05-07T16:12:20;26.60;39.10
42147;DHT22;27815;43.410;11.852;2023-05-07T16:16:25;26.50;39.50
42147;DHT22;27815;43.410;11.852;2023-05-07T16:20:32;26.40;39.70
42147;DHT22;27815;43.410;11.852;2023-05-07T16:24:41;26.30;39.90
42147;DHT22;27815;43.410;11.852;2023-05-07T16:28:44;26.20;40.10
42147;DHT22;27815;43.410;11.852;2023-05-07T16:32:47;26.00;40.50
42147;DHT22;27815;43.410;11.852;2023-05-07T16:36:57;25.90;40.80
42147;DHT22;27815;43.410;11.852;2023-05-07T16:41:00;25.70;41.00
42147;DHT22;27815;43.410;11.852;2023-05-07T16:45:03;25.60;40.80
42147;DHT22;27815;43.410;11.852;2023-05-07T16:49:06;25.40;40.90
42147;DHT22;27815;43.410;11.852;2023-05-07T16:53:10;25.20;41.10
42147;DHT22;27815;43.410;11.852;2023-05-07T16:57:13;25.10;41.30
42147;DHT22;27815;43.410;11.852;2023-05-07T17:01:16;25.00;41.60
42147;DHT22;27815;43.410;11.852;2023-05-07T17:05:20;24.90;41.90
42147;DHT22;27815;43.410;11.852;2023-05-07T17:09:26;24.70;42.30
42147;DHT22;27815;43.410;11.852;2023-05-07T17:13:29;24.60;42.60
42147;DHT22;27815;43.410;11.852;2023-05-07T17:17:32;24.40;42.80
42147;DHT22;27815;43.410;11.852;2023-05-07T17:21:36;24.20;43.30
42147;DHT22;27815;43.410;11.852;2023-05-07T17:25:39;24.10;43.50
42147;DHT22;27815;43.410;11.852;2023-05-07T17:29:46;23.90;43.90
42147;DHT22;27815;43.410;11.852;2023-05-07T17:33:49;23.70;43.40
42147;DHT22;27815;43.410;11.852;2023-05-07T17:37:53;23.50;43.00
42147;DHT22;27815;43.410;11.852;2023-05-07T17:41:56;23.40;42.90
42147;DHT22;27815;43.410;11.852;2023-05-07T17:45:59;23.30;42.90
42147;DHT22;27815;43.410;11.852;2023-05-07T17:50:02;23.20;43.30
42147;DHT22;27815;43.410;11.852;2023-05-07T17:54:11;23.10;43.50
42147;DHT22;27815;43.410;11.852;2023-05-07T17:58:23;23.00;43.50
42147;DHT22;27815;43.410;11.852;2023-05-07T18:02:28;23.00;43.90
42147;DHT22;27815;43.410;11.852;2023-05-07T18:06:31;22.90;44.00
42147;DHT22;27815;43.410;11.852;2023-05-07T18:10:35;22.90;43.90
42147;DHT22;27815;43.410;11.852;2023-05-07T18:14:45;22.90;44.10
42147;DHT22;27815;43.410;11.852;2023-05-07T18:18:49;22.90;44.30
42147;DHT22;27815;43.410;11.852;2023-05-07T18:22:56;22.70;44.60
42147;DHT22;27815;43.410;11.852;2023-05-07T18:26:59;22.70;44.70
42147;DHT22;27815;43.410;11.852;2023-05-07T18:31:03;22.60;44.80
42147;DHT22;27815;43.410;11.852;2023-05-07T18:35:06;22.50;45.00
42147;DHT22;27815;43.410;11.852;2023-05-07T18:39:09;22.50;45.40
42147;DHT22;27815;43.410;11.852;2023-05-07T18:43:12;22.30;45.70
42147;DHT22;27815;43.410;11.852;2023-05-07T18:47:16;22.20;45.90
42147;DHT22;27815;43.410;11.852;2023-05-07T18:51:19;22.10;46.10
42147;DHT22;27815;43.410;11.852;2023-05-07T18:55:22;22.00;46.20
42147;DHT22;27815;43.410;11.852;2023-05-07T18:59:24;22.00;46.60
42147;DHT22;27815;43.410;11.852;2023-05-07T19:03:28;21.90;47.00
42147;DHT22;27815;43.410;11.852;2023-05-07T19:07:31;21.80;47.30
42147;DHT22;27815;43.410;11.852;2023-05-07T19:11:34;21.60;47.60
42147;DHT22;27815;43.410;11.852;2023-05-07T19:15:37;21.50;48.10
42147;DHT22;27815;43.410;11.852;2023-05-07T19:19:40;21.20;48.50
42147;DHT22;27815;43.410;11.852;2023-05-07T19:23:43;21.00;48.90
42147;DHT22;27815;43.410;11.852;2023-05-07T19:27:47;20.90;49.30
42147;DHT22;27815;43.410;11.852;2023-05-07T19:31:52;20.60;49.80
42147;DHT22;27815;43.410;11.852;2023-05-07T19:35:56;20.50;50.50
42147;DHT22;27815;43.410;11.852;2023-05-07T19:40:02;20.30;51.20
42147;DHT22;27815;43.410;11.852;2023-05-07T19:44:07;20.10;51.70
42147;DHT22;27815;43.410;11.852;2023-05-07T19:48:13;20.00;51.90
42147;DHT22;27815;43.410;11.852;2023-05-07T19:52:19;20.00;52.30
42147;DHT22;27815;43.410;11.852;2023-05-07T19:56:22;20.00;52.40
42147;DHT22;27815;43.410;11.852;2023-05-07T20:00:24;19.90;52.40
42147;DHT22;27815;43.410;11.852;2023-05-07T20:04:32;19.90;52.40
42147;DHT22;27815;43.410;11.852;2023-05-07T20:08:39;20.00;52.30
42147;DHT22;27815;43.410;11.852;2023-05-07T20:12:42;20.00;52.40
42147;DHT22;27815;43.410;11.852;2023-05-07T20:16:45;19.90;52.70
42147;DHT22;27815;43.410;11.852;2023-05-07T20:20:48;19.80;52.90
42147;DHT22;27815;43.410;11.852;2023-05-07T20:24:51;19.60;53.10
42147;DHT22;27815;43.410;11.852;2023-05-07T20:28:55;19.60;53.10
42147;DHT22;27815;43.410;11.852;2023-05-07T20:32:57;19.50;53.10
42147;DHT22;27815;43.410;11.852;2023-05-07T20:37:00;19.50;53.40
42147;DHT22;27815;43.410;11.852;2023-05-07T20:41:09;19.50;53.60
42147;DHT22;27815;43.410;11.852;2023-05-07T20:45:14;19.30;53.70
42147;DHT22;27815;43.410;11.852;2023-05-07T20:49:17;19.30;53.60
42147;DHT22;27815;43.410;11.852;2023-05-07T20:53:20;19.30;53.70
42147;DHT22;27815;43.410;11.852;2023-05-07T20:57:23;19.30;53.80
42147;DHT22;27815;43.410;11.852;2023-05-07T21:01:26;19.30;53.60
42147;DHT22;27815;43.410;11.852;2023-05-07T21:05:30;19.30;53.80
42147;DHT22;27815;43.410;11.852;2023-05-07T21:09:34;19.30;53.60
42147;DHT22;27815;43.410;11.852;2023-05-07T21:13:37;19.30;53.50
42147;DHT22;27815;43.410;11.852;2023-05-07T21:17:40;19.40;53.90
42147;DHT22;27815;43.410;11.852;2023-05-07T21:21:43;19.30;54.00
42147;DHT22;27815;43.410;11.852;2023-05-07T21:25:46;19.10;54.40
42147;DHT22;27815;43.410;11.852;2023-05-07T21:29:50;19.00;54.80
42147;DHT22;27815;43.410;11.852;2023-05-07T21:33:53;19.10;54.80
42147;DHT22;27815;43.410;11.852;2023-05-07T21:37:56;19.00;54.90
42147;DHT22;27815;43.410;11.852;2023-05-07T21:41:59;19.00;55.00
42147;DHT22;27815;43.410;11.852;2023-05-07T21:46:06;19.00;55.20
42147;DHT22;27815;43.410;11.852;2023-05-07T21:50:09;18.90;55.40
42147;DHT22;27815;43.410;11.852;2023-05-07T21:54:13;19.00;55.30
42147;DHT22;27815;43.410;11.852;2023-05-07T21:58:17;19.00;55.40
42147;DHT22;27815;43.410;11.852;2023-05-07T22:02:20;18.90;55.60
42147;DHT22;27815;43.410;11.852;2023-05-07T22:06:23;19.00;55.50
42147;DHT22;27815;43.410;11.852;2023-05-07T22:10:26;19.00;55.60
42147;DHT22;27815;43.410;11.852;2023-05-07T22:14:30;18.90;55.80
42147;DHT22;27815;43.410;11.852;2023-05-07T22:18:33;18.90;55.80
42147;DHT22;27815;43.410;11.852;2023-05-07T22:22:47;19.00;55.90
42147;DHT22;27815;43.410;11.852;2023-05-07T22:26:57;18.90;56.00
42147;DHT22;27815;43.410;11.852;2023-05-07T22:30:59;18.80;56.10
42147;DHT22;27815;43.410;11.852;2023-05-07T22:35:03;18.80;56.20
42147;DHT22;27815;43.410;11.852;2023-05-07T22:39:05;18.80;56.20
42147;DHT22;27815;43.410;11.852;2023-05-07T22:43:10;18.70;56.50
42147;DHT22;27815;43.410;11.852;2023-05-07T22:47:13;18.70;56.70
42147;DHT22;27815;43.410;11.852;2023-05-07T22:51:16;18.60;56.60
42147;DHT22;27815;43.410;11.852;2023-05-07T22:55:21;18.50;56.60
42147;DHT22;27815;43.410;11.852;2023-05-07T22:59:39;18.40;57.00
42147;DHT22;27815;43.410;11.852;2023-05-07T23:03:48;18.20;57.20
42147;DHT22;27815;43.410;11.852;2023-05-07T23:07:50;18.10;57.40
42147;DHT22;27815;43.410;11.852;2023-05-07T23:11:53;18.00;57.50
42147;DHT22;27815;43.410;11.852;2023-05-07T23:15:57;18.00;57.60
42147;DHT22;27815;43.410;11.852;2023-05-07T23:20:00;17.90;57.40
42147;DHT22;27815;43.410;11.852;2023-05-07T23:24:03;17.70;57.60
42147;DHT22;27815;43.410;11.852;2023-05-07T23:28:06;17.50;57.90
42147;DHT22;27815;43.410;11.852;2023-05-07T23:32:09;17.40;58.00
42147;DHT22;27815;43.410;11.852;2023-05-07T23:36:12;17.40;58.20
42147;DHT22;27815;43.410;11.852;2023-05-07T23:40:16;17.30;58.30
42147;DHT22;27815;43.410;11.852;2023-05-07T23:44:20;17.30;58.30
42147;DHT22;27815;43.410;11.852;2023-05-07T23:48:23;17.30;58.20
42147;DHT22;27815;43.410;11.852;2023-05-07T23:52:26;17.20;58.20
42147;DHT22;27815;43.410;11.852;2023-05-07T23:56:28;17.10;58.30
